Tiempo atmosférico en la estación meteorológica de Cabo Vilan, A Coruña (50 m.)



Fecha
DESCASC
Temp. máxima en grados centígrados (hora)
DESCASC
Temp. mínima en grados centígrados (hora)
DESCASC
Temp. media en grados centígrados
DESCASC
Racha de viento máxima en m/sg (hora)
DESCASC
Velocidad máxima media en intervalos de 10 minutos(hora)
DESCASC
Precipitaciones diarias en mm
DESCASC
Precipitaciones de 00:00 a 06:00 en mm
DESCASC
Precipitaciones de 06:00 a 12:00 en mm
DESCASC
Precipitaciones de 12:00 a 18:00 en mm
DESCASC
Precipitaciones de 18:00 a 24:00 en mm
DESCASC
18-08-2019 21.3 (17:00) 16.4 (07:30) 18.8 15 (02:50) 11.11 (02:50) 11.8 11.7 0.1 0 0
17-08-2019 21.4 (19:30) 19 (06:50) 20.2 15 (22:40) 11.39 (17:30) 1 0.1 0.6 0.3 0
16-08-2019 23.9 (16:00) 15.2 (07:20) 19.5 9.72 (17:10) 7.78 (18:00) 0 0 0 0 0
15-08-2019 21.2 (15:30) 16 (00:00) 18.6 9.17 (14:10) 7.78 (17:00) 0 0 0 0 0
14-08-2019 21.3 (15:40) 15.8 (00:00) 18.5 8.06 (05:30) 5.83 (06:20) 0 0 0 0 0
13-08-2019 21 (15:30) 14.6 (00:00) 17.8 8.61 (00:10) 7.22 (00:10) 0 0 0 0 0
12-08-2019 20.9 (12:40) 15 (00:00) 17.9 8.61 (23:50) 7.5 (23:59) 0 0 0 0 0
11-08-2019 22.2 (14:40) 15.6 (00:00) 18.9 8.89 (15:10) 6.39 (15:10) 0 0 0 0 0
10-08-2019 22.9 (14:20) 16.9 (00:00) 19.9 8.61 (01:00) 6.67 (01:00) 0.1 0 0.1 0 0
09-08-2019 21.6 (14:50) 17.6 (00:00) 19.6 22.5 (05:30) 16.11 (08:30) 0.1 0 0 0 0.1
08-08-2019 22.3 (15:10) 18 (00:00) 20.1 23.61 (19:20) 16.94 (18:10) 14.8 0.2 0 5.9 8.7
07-08-2019 20 (15:00) 17.4 (00:00) 18.7 19.44 (22:10) 13.06 (22:10) 5 0 1.9 1.3 1.8
06-08-2019 20.2 (16:20) 18.2 (00:00) 19.2 8.61 (15:20) 6.67 (15:20) 1 0 0 0.8 0.2
05-08-2019 22.7 (12:50) 17 (00:00) 19.9 9.72 (14:30) 7.22 (14:40) 0 0 0 0 0
04-08-2019 22.8 (16:10) 17.4 (00:00) 20.1 6.11 (01:40) 4.17 (01:40) 0 0 0 0 0
03-08-2019 23.1 (16:10) 17.2 (00:00) 20.2 5 (20:40) 3.89 (00:40) 0 0 0 0 0
02-08-2019 21.5 (15:50) 17.1 (00:00) 19.3 11.67 (01:20) 8.61 (00:10) 0 0 0 0 0
01-08-2019 20.4 (15:50) 16.8 (00:00) 18.6 15 (08:10) 12.22 (07:50) 0 0 0 0 0
31-07-2019 20.5 (16:30) 14.2 (00:00) 17.3 12.78 (22:30) 10.56 (22:30) 0 0 0 0 0
30-07-2019 -- (--) -- (--) -- 7.5 (03:40) 5.83 (03:50) 0.3 0.1 0.2 0 0
29-07-2019 -- (--) -- (--) -- 16.39 (01:20) 12.22 (01:20) 2.2 1.6 0.2 0 0.4
28-07-2019 -- (--) -- (--) -- 15.28 (22:40) 10.56 (19:40) 1 0 0 0 1
27-07-2019 -- (--) -- (--) -- 16.11 (09:40) 11.94 (09:20) 11.2 5.4 5.8 0 0
26-07-2019 -- (--) -- (--) -- 7.22 (14:50) 5.83 (14:50) 0.9 0 0 0 0.9
25-07-2019 22.1 (16:00) 16.6 (00:00) 19.4 15.28 (05:10) 11.67 (04:50) 2.8 0 2.8 0 0
24-07-2019 -- (--) -- (--) -- 13.33 (23:20) 10 (19:20) 0 0 0 0 0
23-07-2019 -- (--) -- (--) -- 11.39 (00:50) 7.5 (01:00) 0.4 0 0.4 0 0
22-07-2019 -- (--) -- (--) -- 14.72 (07:20) 11.39 (11:00) 0 0 0 0 0
21-07-2019 20.6 (14:50) 15.5 (00:00) 18.1 13.33 (22:00) 10.83 (22:00) 0 0 0 0 0

Gráficas

Temp. máximas Temp. mínimas Temp. medias Precipitaciones Rachas de viento máximas Velocidades máximas media en intervalos de 10 minutos

Datos horarios

Fecha y hora oficial Temperatura (ºC) Velocidad del viento (km/h) Dirección del viento Racha (km/h) Dirección de racha Precipitación (mm) Presión (hPa) Tendencia (hPa) Humedad (%)
2019-08-19 23:00:00 17 40 Nordeste 50 Nordeste 0 -- -- 77
2019-08-19 22:00:00 17.2 41 Nordeste 49 Norte 0 -- -- 76
2019-08-19 21:00:00 17.4 40 Nordeste 50 Nordeste 0 -- -- 74
2019-08-19 20:00:00 18.2 39 Nordeste 48 Norte 0 -- -- 72
2019-08-19 19:00:00 18.2 37 Nordeste 45 Norte 0 -- -- 72
2019-08-19 18:00:00 18.7 34 Nordeste 42 Nordeste 0 -- -- 70
2019-08-19 17:00:00 19.4 33 Nordeste 40 Nordeste 0 -- -- 69
2019-08-19 16:00:00 19.7 34 Nordeste 40 Nordeste 0 -- -- 65
2019-08-19 15:00:00 19.9 29 Nordeste 38 Nordeste 0 -- -- 65
2019-08-19 14:00:00 18.8 28 Nordeste 36 Nordeste 0 -- -- 68
2019-08-19 13:00:00 19.5 29 Nordeste 36 Nordeste 0 -- -- 66
2019-08-19 12:00:00 19.3 21 Nordeste 28 Nordeste 0 -- -- 68
2019-08-19 11:00:00 18.8 23 Nordeste 29 Nordeste 0 -- -- 71
2019-08-19 10:00:00 18.1 24 Nordeste 28 Nordeste 0 -- -- 70
2019-08-19 09:00:00 17 23 Nordeste 29 Nordeste 0 -- -- 74
2019-08-19 08:00:00 16.8 24 Nordeste 28 Nordeste 0 -- -- 76
2019-08-19 07:00:00 16.5 21 Nordeste 26 Nordeste 0 -- -- 76
2019-08-19 06:00:00 16.8 22 Nordeste 27 Nordeste 0 -- -- 77
2019-08-19 05:00:00 16.8 21 Nordeste 26 Nordeste 0 -- -- 75
2019-08-19 04:00:00 16.9 22 Norte 26 Nordeste 0 -- -- 75
2019-08-19 03:00:00 16.9 20 Norte 24 Norte 0 -- -- 74
2019-08-19 02:00:00 17 20 Norte 26 Norte 0 -- -- 75
2019-08-19 01:00:00 16.9 19 Nordeste 23 Nordeste 0 -- -- 75
2019-08-19 00:00:00 16.9 18 Nordeste 23 Norte 0 -- -- 73
2019-08-18 23:00:00 16.9 18 Norte 22 Nordeste 0 -- -- 72
2019-08-18 22:00:00 17 19 Norte 24 Norte 0 -- -- 72
2019-08-18 21:00:00 17.6 19 Norte 24 Norte 0 -- -- 68
2019-08-18 20:00:00 18.3 17 Norte 27 Norte 0 -- -- 67
2019-08-18 19:00:00 19.3 23 Norte 28 Norte 0 -- -- 66
2019-08-18 18:00:00 20.5 13 Norte 20 Norte 0 -- -- 62
2019-08-18 17:00:00 20.1 14 Norte 20 Norte 0 -- -- 65
2019-08-18 16:00:00 20.9 14 Norte 19 Norte 0 -- -- 66
2019-08-18 15:00:00 20.2 17 Norte 22 Norte 0 -- -- 67
2019-08-18 14:00:00 20 13 Norte 24 Norte 0 -- -- 70
2019-08-18 13:00:00 19.1 12 Norte 17 Norte 0 -- -- 69
2019-08-18 12:00:00 19.6 16 Norte 22 Nordeste 0 -- -- 71
2019-08-18 11:00:00 18.5 18 Norte 27 Norte 0 -- -- 75
2019-08-18 10:00:00 17.4 21 Norte 32 Norte 0.1 -- -- 81
2019-08-18 09:00:00 16.9 25 Norte 31 Norte 0 -- -- 84
2019-08-18 08:00:00 16.4 23 Norte 41 Norte 0 -- -- 91
2019-08-18 07:00:00 17 21 Norte 33 Norte 0 -- -- 95
2019-08-18 06:00:00 17.2 21 Norte 31 Noroeste 0.3 -- -- 95
2019-08-18 05:00:00 17.1 23 Norte 33 Norte 0.2 -- -- 95
2019-08-18 04:00:00 17.4 27 Norte 40 Norte 2.7 -- -- 95
2019-08-18 03:00:00 19.7 34 Sudoeste 54 Sudoeste 7.2 -- -- 95
2019-08-18 02:00:00 20.1 33 Sur 49 Sur 1.3 -- -- 94
2019-08-18 01:00:00 20.2 37 Sudoeste 51 Sur 0 -- -- 94
2019-08-18 00:00:00 20 34 Sudoeste 48 Sudoeste 0 -- -- 94
2019-08-17 23:00:00 20.2 36 Sudoeste 54 Sur 0 -- -- 94
2019-08-17 22:00:00 20.1 39 Sudoeste 53 Sudoeste 0 -- -- 93
2019-08-17 21:00:00 20.5 33 Sur 50 Sudoeste 0 -- -- 92
2019-08-17 20:00:00 20.7 35 Sudoeste 53 Sudoeste 0 -- -- 92
2019-08-17 19:00:00 21.1 36 Sudoeste 50 Sudoeste 0 -- -- 95
2019-08-17 18:00:00 20.9 38 Sudoeste 53 Sudoeste 0 -- -- 95
2019-08-17 17:00:00 20.3 37 Sudoeste 51 Sudoeste 0 -- -- 95
2019-08-17 16:00:00 20.5 36 Sudoeste 50 Sudoeste 0.1 -- -- 95
2019-08-17 15:00:00 20.7 36 Sudoeste 49 Sudoeste 0 -- -- 95
2019-08-17 14:00:00 20.8 31 Sur 47 Sudoeste 0.1 -- -- 95
2019-08-17 13:00:00 20.6 32 Sudoeste 48 Sudoeste 0.1 -- -- 95
2019-08-17 12:00:00 20.2 24 Sur 36 Sudoeste 0.1 -- -- 95
2019-08-17 11:00:00 19.9 19 Sur 29 Sur 0.1 -- -- 95
2019-08-17 10:00:00 19.9 22 Sur 34 Sur 0 -- -- 95
2019-08-17 09:00:00 19.5 20 Sur 32 Sur 0.2 -- -- 95
2019-08-17 08:00:00 19.5 22 Sur 38 Sur 0.2 -- -- 95
2019-08-17 07:00:00 19.3 30 Sudoeste 39 Sur 0 -- -- 95
2019-08-17 06:00:00 19.3 28 Sudoeste 44 Sur 0.1 -- -- 95
2019-08-17 05:00:00 19.5 29 Sudoeste 38 Sudoeste 0 -- -- 95
2019-08-17 04:00:00 19.7 27 Sur 38 Sudoeste 0 -- -- 95
2019-08-17 03:00:00 19.7 29 Sudoeste 38 Sudoeste 0 -- -- 94
2019-08-17 02:00:00 19.4 29 Sudoeste 37 Sudoeste 0 -- -- 94
2019-08-17 01:00:00 19.5 18 Sur 35 Sur 0 -- -- 93
2019-08-17 00:00:00 19.7 26 Sur 35 Sudoeste 0 -- -- 93
2019-08-16 23:00:00 19.3 27 Sudoeste 33 Sur 0 -- -- 93
2019-08-16 22:00:00 19.4 23 Sudoeste 31 Sudoeste 0 -- -- 91
2019-08-16 21:00:00 19.7 23 Sudoeste 30 Sudoeste 0 -- -- 88
2019-08-16 20:00:00 21.4 23 Sudoeste 30 Sudoeste 0 -- -- 85
2019-08-16 19:00:00 20.5 23 Sudoeste 35 Sudoeste 0 -- -- 84
2019-08-16 18:00:00 21.9 28 Sudoeste 35 Sudoeste 0 -- -- 78
2019-08-16 17:00:00 21.9 26 Sudoeste 33 Sudoeste 0 -- -- 74
2019-08-16 16:00:00 23.9 24 Sudoeste 32 Sudoeste 0 -- -- 70
2019-08-16 15:00:00 22.4 25 Sudoeste 32 Sudoeste 0 -- -- 71
2019-08-16 14:00:00 23.1 21 Sudoeste 27 Sudoeste 0 -- -- 70
2019-08-16 13:00:00 22.8 17 Sudoeste 22 Sudoeste 0 -- -- 72
2019-08-16 12:00:00 21.7 11 Sur 14 Sudoeste 0 -- -- 74
2019-08-16 11:00:00 20.3 7 Sudeste 12 Sudeste 0 -- -- 80
2019-08-16 10:00:00 18.3 5 Sudeste 13 Sudeste 0 -- -- 90
2019-08-16 09:00:00 17.1 9 Sudeste 15 Sudeste 0 -- -- 92
2019-08-16 08:00:00 16.3 10 Sudeste 16 Este 0 -- -- 92
2019-08-16 07:00:00 15.5 14 Sudeste 17 Este 0 -- -- 91
2019-08-16 06:00:00 16.1 3 Este 8 Este 0 -- -- 90
2019-08-16 05:00:00 16.4 0 Calma 9 Este 0 -- -- 89
2019-08-16 04:00:00 16 7 Este 12 Este 0 -- -- 89
2019-08-16 03:00:00 16.4 8 Nordeste 11 Nordeste 0 -- -- 89
2019-08-16 02:00:00 16.5 9 Nordeste 14 Nordeste 0 -- -- 88
2019-08-16 01:00:00 16.7 7 Nordeste 18 Nordeste 0 -- -- 84
2019-08-16 00:00:00 17.1 10 Nordeste 23 Nordeste 0 -- -- 83
2019-08-15 23:00:00 17.9 18 Nordeste 26 Nordeste 0 -- -- 81
2019-08-15 22:00:00 18.1 22 Nordeste 32 Nordeste 0 -- -- 80
2019-08-15 21:00:00 18.5 26 Nordeste 31 Nordeste 0 -- -- 77
2019-08-15 20:00:00 19.2 24 Nordeste 28 Nordeste 0 -- -- 76
2019-08-15 19:00:00 20 22 Nordeste 31 Norte 0 -- -- 74
2019-08-15 18:00:00 20.2 25 Nordeste 32 Nordeste 0 -- -- 73
2019-08-15 17:00:00 20.6 28 Nordeste 32 Nordeste 0 -- -- 73
2019-08-15 16:00:00 20.9 26 Nordeste 32 Nordeste 0 -- -- 70
2019-08-15 15:00:00 20.7 26 Nordeste 33 Nordeste 0 -- -- 73
2019-08-15 14:00:00 20.6 26 Nordeste 30 Nordeste 0 -- -- 73
2019-08-15 13:00:00 20.7 22 Nordeste 25 Nordeste 0 -- -- 76
2019-08-15 12:00:00 20.1 19 Nordeste 26 Nordeste 0 -- -- 78
2019-08-15 11:00:00 19.6 22 Nordeste 27 Nordeste 0 -- -- 74
2019-08-15 10:00:00 18.6 15 Nordeste 20 Nordeste 0 -- -- 80
2019-08-15 09:00:00 18.2 9 Nordeste 17 Nordeste 0 -- -- 81
2019-08-15 08:00:00 16.8 13 Nordeste 18 Nordeste 0 -- -- 84
2019-08-15 07:00:00 16.9 11 Nordeste 17 Nordeste 0 -- -- 85
2019-08-15 06:00:00 16.5 14 Nordeste 20 Nordeste 0 -- -- 84
2019-08-15 05:00:00 16.2 15 Nordeste 17 Nordeste 0 -- -- 86
2019-08-15 04:00:00 16.4 12 Este 15 Este 0 -- -- 87
2019-08-15 03:00:00 16.3 12 Este 14 Este 0 -- -- 86
2019-08-15 02:00:00 16.8 10 Nordeste 15 Nordeste 0 -- -- 85
2019-08-15 01:00:00 17.2 13 Nordeste 16 Norte 0 -- -- 86
2019-08-15 00:00:00 17.3 10 Norte 20 Norte 0 -- -- 86
2019-08-14 23:00:00 17.3 13 Norte 18 Norte 0 -- -- 88
2019-08-14 22:00:00 17.3 12 Norte 16 Norte 0 -- -- 88
2019-08-14 21:00:00 18.3 9 Norte 16 Noroeste 0 -- -- 91
2019-08-14 20:00:00 18.6 12 Noroeste 22 Noroeste 0 -- -- 94
2019-08-14 19:00:00 19.8 11 Noroeste 15 Norte 0 -- -- 94
2019-08-14 18:00:00 19.8 7 Oeste 13 Sudoeste 0 -- -- 94
2019-08-14 17:00:00 20.2 11 Sudoeste 21 Sudoeste 0 -- -- 93
2019-08-14 16:00:00 20.4 15 Sudoeste 20 Sudoeste 0 -- -- 90
2019-08-14 15:00:00 20.7 16 Sudoeste 23 Sudoeste 0 -- -- 90
2019-08-14 14:00:00 20.7 17 Sudoeste 24 Sudoeste 0 -- -- 90
2019-08-14 13:00:00 20.9 18 Sudoeste 24 Sudoeste 0 -- -- 89
2019-08-14 12:00:00 20.2 16 Sudoeste 22 Sur 0 -- -- 89
2019-08-14 11:00:00 18.6 15 Sur 21 Sur 0 -- -- 91
2019-08-14 10:00:00 18.1 17 Sur 26 Sudoeste 0 -- -- 92
2019-08-14 09:00:00 17.9 18 Sudoeste 24 Sudoeste 0 -- -- 91
2019-08-14 08:00:00 18.1 16 Sur 24 Sur 0 -- -- 87
2019-08-14 07:00:00 18.1 18 Sur 26 Sur 0 -- -- 84
2019-08-14 06:00:00 17.5 20 Sur 29 Sur 0 -- -- 80
2019-08-14 05:00:00 16.9 17 Sur 22 Sur 0 -- -- 74
2019-08-14 04:00:00 17 14 Sur 19 Sur 0 -- -- 70
2019-08-14 03:00:00 16.9 11 Sur 14 Sudeste 0 -- -- 68
2019-08-14 02:00:00 16.5 9 Sur 14 Sudeste 0 -- -- 72
2019-08-14 01:00:00 15.9 10 Sudeste 13 Sudeste 0 -- -- 80
2019-08-14 00:00:00 16.3 6 Sudeste 8 Sudeste 0 -- -- 75
2019-08-13 23:00:00 16.8 0 Calma 5 Nordeste 0 -- -- 74
2019-08-13 22:00:00 17 5 Norte 9 Nordeste 0 -- -- 74
2019-08-13 21:00:00 18.6 8 Nordeste 12 Norte 0 -- -- 69
2019-08-13 20:00:00 19.3 9 Norte 14 Norte 0 -- -- 66
2019-08-13 19:00:00 19.8 12 Norte 17 Norte 0 -- -- 65
2019-08-13 18:00:00 20.6 14 Norte 19 Norte 0 -- -- 65
2019-08-13 17:00:00 20.7 15 Norte 21 Norte 0 -- -- 65
2019-08-13 16:00:00 20.6 18 Norte 23 Norte 0 -- -- 63
2019-08-13 15:00:00 20.7 19 Norte 24 Norte 0 -- -- 65
2019-08-13 14:00:00 20.3 20 Nordeste 25 Nordeste 0 -- -- 67
2019-08-13 13:00:00 20.2 21 Nordeste 25 Nordeste 0 -- -- 69
2019-08-13 12:00:00 19.5 18 Nordeste 27 Nordeste 0 -- -- 73
2019-08-13 11:00:00 18.5 21 Nordeste 30 Nordeste 0 -- -- 72
2019-08-13 10:00:00 17.8 15 Nordeste 24 Nordeste 0 -- -- 75
2019-08-13 09:00:00 16.6 11 Nordeste 18 Nordeste 0 -- -- 81
2019-08-13 08:00:00 14.8 12 Este 19 Este 0 -- -- 83
2019-08-13 07:00:00 15.4 15 Nordeste 22 Nordeste 0 -- -- 81
2019-08-13 06:00:00 14.9 13 Nordeste 21 Este 0 -- -- 81
2019-08-13 05:00:00 14.8 15 Este 22 Este 0 -- -- 80
2019-08-13 04:00:00 15.2 15 Nordeste 25 Nordeste 0 -- -- 77
2019-08-13 03:00:00 15.7 17 Nordeste 25 Nordeste 0 -- -- 75
2019-08-13 02:00:00 16.2 17 Nordeste 30 Nordeste 0 -- -- 75
2019-08-13 01:00:00 16.7 18 Nordeste 31 Nordeste 0 -- -- 75
2019-08-13 00:00:00 16.8 27 Nordeste 31 Nordeste 0 -- -- 74
2019-08-12 23:00:00 16.9 23 Nordeste 30 Nordeste 0 -- -- 74
2019-08-12 22:00:00 17 24 Nordeste 28 Nordeste 0 -- -- 74
2019-08-12 21:00:00 17.5 23 Nordeste 29 Nordeste 0 -- -- 70
2019-08-12 20:00:00 18.4 20 Nordeste 26 Nordeste 0 -- -- 70
2019-08-12 19:00:00 19.4 20 Nordeste 24 Norte 0 -- -- 68
2019-08-12 18:00:00 19.7 18 Norte 23 Norte 0 -- -- 65
2019-08-12 17:00:00 20 15 Norte 23 Nordeste 0 -- -- 65
2019-08-12 16:00:00 20.3 17 Nordeste 21 Nordeste 0 -- -- 65
2019-08-12 15:00:00 18.7 14 Norte 17 Nordeste 0 -- -- 68
2019-08-12 14:00:00 18.9 13 Norte 17 Norte 0 -- -- 67
2019-08-12 13:00:00 19.4 13 Norte 17 Norte 0 -- -- 65
2019-08-12 12:00:00 20.1 13 Norte 17 Norte 0 -- -- 68
2019-08-12 11:00:00 19.7 10 Norte 13 Nordeste 0 -- -- 71
2019-08-12 10:00:00 18.4 5 Norte 8 Norte 0 -- -- 77
2019-08-12 09:00:00 16.4 0 Calma 10 Este 0 -- -- 82
2019-08-12 08:00:00 15.1 0 Calma 8 Sudeste 0 -- -- 82
2019-08-12 07:00:00 15.6 9 Norte 14 Norte 0 -- -- 81
2019-08-12 06:00:00 15.9 9 Norte 16 Norte 0 -- -- 80
2019-08-12 05:00:00 16 13 Norte 17 Norte 0 -- -- 79
2019-08-12 04:00:00 16.3 14 Norte 20 Norte 0 -- -- 81
2019-08-12 03:00:00 16.6 14 Norte 18 Norte 0 -- -- 82
2019-08-12 02:00:00 16.8 15 Norte 20 Norte 0 -- -- 81
2019-08-12 01:00:00 16.7 12 Noroeste 18 Noroeste 0 -- -- 78
2019-08-12 00:00:00 17.2 13 Noroeste 19 Noroeste 0 -- -- 78
2019-08-11 23:00:00 16.9 14 Noroeste 19 Noroeste 0 -- -- 77
2019-08-11 22:00:00 17.3 14 Noroeste 21 Noroeste 0 -- -- 75
2019-08-11 21:00:00 18.7 12 Noroeste 19 Oeste 0 -- -- 70
2019-08-11 20:00:00 19.8 12 Noroeste 19 Noroeste 0 -- -- 67
2019-08-11 19:00:00 20.7 14 Noroeste 21 Noroeste 0 -- -- 65
2019-08-11 18:00:00 21.3 12 Oeste 23 Oeste 0 -- -- 62
2019-08-11 17:00:00 21.5 15 Oeste 24 Oeste 0 -- -- 62
2019-08-11 16:00:00 21.7 15 Oeste 32 Oeste 0 -- -- 62
2019-08-11 15:00:00 21.9 21 Oeste 28 Oeste 0 -- -- 62
2019-08-11 14:00:00 21.5 19 Oeste 26 Oeste 0 -- -- 64
2019-08-11 13:00:00 20.8 19 Oeste 28 Sudoeste 0 -- -- 68
2019-08-11 12:00:00 19.3 15 Sudoeste 21 Sudoeste 0 -- -- 80
2019-08-11 11:00:00 18.2 17 Oeste 20 Oeste 0 -- -- 80
2019-08-11 10:00:00 17.8 7 Sudoeste 13 Sudoeste 0 -- -- 87
2019-08-11 09:00:00 16.7 5 Sur 13 Sur 0 -- -- 90
2019-08-11 08:00:00 15.9 11 Sur 18 Sudeste 0 -- -- 90
2019-08-11 07:00:00 16.1 6 Sur 10 Sudeste 0 -- -- 88
2019-08-11 06:00:00 16.2 7 Sur 10 Sudeste 0 -- -- 88
2019-08-11 05:00:00 16.6 2 Sudoeste 7 Sudoeste 0 -- -- 86
2019-08-11 04:00:00 16.8 4 Sudoeste 9 Sudoeste 0 -- -- 87
2019-08-11 03:00:00 16.6 3 Sudoeste 10 Oeste 0 -- -- 87
2019-08-11 02:00:00 16.8 7 Oeste 12 Noroeste 0 -- -- 85
2019-08-11 01:00:00 17.1 8 Oeste 10 Oeste 0 -- -- 84
2019-08-11 00:00:00 17.2 6 Oeste 12 Oeste 0 -- -- 84
2019-08-10 23:00:00 17.2 9 Oeste 16 Oeste 0 -- -- 80
2019-08-10 22:00:00 17.8 12 Oeste 18 Oeste 0 -- -- 77
2019-08-10 21:00:00 19.6 11 Oeste 18 Sudoeste 0 -- -- 72
2019-08-10 20:00:00 19.7 12 Oeste 20 Sudoeste 0 -- -- 68
2019-08-10 19:00:00 20.3 19 Sudoeste 24 Oeste 0 -- -- 66
2019-08-10 18:00:00 21.7 20 Oeste 24 Oeste 0 -- -- 62
2019-08-10 17:00:00 22.2 17 Oeste 22 Oeste 0 -- -- 62
2019-08-10 16:00:00 22 19 Sudoeste 24 Sudoeste 0 -- -- 65
2019-08-10 15:00:00 21.6 17 Sudoeste 25 Sudoeste 0 -- -- 66
2019-08-10 14:00:00 21.9 21 Sudoeste 26 Sudoeste 0 -- -- 68
2019-08-10 13:00:00 21.6 20 Sudoeste 24 Sudoeste 0 -- -- 74
2019-08-10 12:00:00 18.5 15 Sudoeste 24 Sudoeste 0 -- -- 81
2019-08-10 11:00:00 20 17 Sudoeste 22 Sudoeste 0.1 -- -- 79
2019-08-10 10:00:00 19 16 Sudoeste 24 Sudoeste 0 -- -- 84
2019-08-10 09:00:00 17.7 19 Sudoeste 24 Sudoeste 0 -- -- 91
2019-08-10 08:00:00 17.1 19 Sudoeste 25 Sudoeste 0 -- -- 92
2019-08-10 07:00:00 17 18 Sudoeste 24 Sudoeste 0 -- -- 92
2019-08-10 06:00:00 17.2 18 Sudoeste 24 Sudoeste 0 -- -- 92
2019-08-10 05:00:00 17.6 17 Sudoeste 27 Sudoeste 0 -- -- 92
2019-08-10 04:00:00 17.7 19 Sudoeste 26 Sudoeste 0 -- -- 92
2019-08-10 03:00:00 17.6 18 Sudoeste 26 Sudoeste 0 -- -- 91
2019-08-10 02:00:00 18 22 Sudoeste 29 Sudoeste 0 -- -- 91
2019-08-10 01:00:00 17.8 24 Sudoeste 31 Sudoeste 0 -- -- 91
2019-08-10 00:00:00 17.8 23 Sudoeste 34 Sudoeste 0 -- -- 91
2019-08-09 23:00:00 18 24 Sudoeste 38 Sudoeste 0.1 -- -- 91
2019-08-09 22:00:00 18.7 23 Sudoeste 39 Sudoeste 0 -- -- 88
2019-08-09 21:00:00 19.2 31 Sudoeste 45 Sudoeste 0 -- -- 84
2019-08-09 20:00:00 20.3 31 Sudoeste 44 Sudoeste 0 -- -- 78
2019-08-09 19:00:00 21 33 Sudoeste 48 Sudoeste 0 -- -- 76
2019-08-09 18:00:00 20.9 36 Sudoeste 55 Sudoeste 0 -- -- 76
2019-08-09 17:00:00 20.4 41 Sudoeste 62 Sudoeste 0 -- -- 77
2019-08-09 16:00:00 20.8 41 Sudoeste 57 Sudoeste 0 -- -- 79
2019-08-09 15:00:00 21.2 42 Sudoeste 65 Sudoeste 0 -- -- 79
2019-08-09 14:00:00 20.8 43 Sudoeste 62 Sudoeste 0 -- -- 82
2019-08-09 13:00:00 21 46 Sudoeste 64 Sudoeste 0 -- -- 81
2019-08-09 12:00:00 19.1 47 Sudoeste 73 Sudoeste 0 -- -- 87
2019-08-09 11:00:00 19.6 52 Sudoeste 69 Sudoeste 0 -- -- 86
2019-08-09 10:00:00 19.2 57 Sudoeste 73 Sudoeste 0 -- -- 87
2019-08-09 09:00:00 18.8 54 Sudoeste 76 Sudoeste 0 -- -- 88
2019-08-09 08:00:00 18.9 54 Sudoeste 72 Sudoeste 0 -- -- 91
2019-08-09 07:00:00 18.9 54 Sudoeste 74 Sudoeste 0 -- -- 91
2019-08-09 06:00:00 19 54 Sudoeste 81 Sudoeste 0 -- -- 89
2019-08-09 05:00:00 18.9 54 Sudoeste 76 Sur 0 -- -- 92
2019-08-09 04:00:00 18.9 54 Sudoeste 73 Sudoeste 0 -- -- 93
2019-08-09 03:00:00 18.9 55 Sudoeste 77 Sudoeste 0 -- -- 94
2019-08-09 02:00:00 18.9 52 Sudoeste 69 Sudoeste 0 -- -- 94
2019-08-09 01:00:00 18.8 49 Sudoeste 67 Sudoeste 0 -- -- 94
2019-08-09 00:00:00 18.8 48 Sudoeste 67 Sudoeste 0 -- -- 94
2019-08-08 23:00:00 18.8 46 Sudoeste 63 Sudoeste 0 -- -- 94
2019-08-08 22:00:00 18.2 41 Sudoeste 58 Sudoeste 0.5 -- -- 94
2019-08-08 21:00:00 18.5 41 Sudoeste 72 Sudoeste 1.5 -- -- 95
2019-08-08 20:00:00 19.3 49 Sur 85 Sur 2.3 -- -- 95
2019-08-08 19:00:00 20.1 61 Sur 84 Sur 4.4 -- -- 94
2019-08-08 18:00:00 20.1 59 Sur 80 Sur 0.2 -- -- 94
2019-08-08 17:00:00 20.3 54 Sur 77 Sur 5 -- -- 94
2019-08-08 16:00:00 20 51 Sur 74 Sur 0.6 -- -- 93
2019-08-08 15:00:00 22 50 Sur 69 Sur 0 -- -- 89
2019-08-08 14:00:00 21.8 46 Sur 65 Sur 0.1 -- -- 93
2019-08-08 13:00:00 21.9 42 Sur 60 Sur 0 -- -- 94
2019-08-08 12:00:00 21 45 Sur 64 Sur 0 -- -- 95
2019-08-08 11:00:00 20.5 32 Sur 46 Sur 0 -- -- 95
2019-08-08 10:00:00 19.8 30 Sur 41 Sur 0 -- -- 95
2019-08-08 09:00:00 19.1 31 Sur 53 Sur 0 -- -- 95
2019-08-08 08:00:00 18.8 33 Sur 48 Sur 0 -- -- 95
2019-08-08 07:00:00 18.7 30 Sur 47 Sur 0 -- -- 95
2019-08-08 06:00:00 18.6 26 Sur 46 Sudoeste 0 -- -- 95
2019-08-08 05:00:00 18.9 34 Sur 52 Sur 0 -- -- 95
2019-08-08 04:00:00 19.2 34 Sur 47 Sur 0 -- -- 95
2019-08-08 03:00:00 19 31 Sur 50 Sur 0.1 -- -- 95
2019-08-08 02:00:00 18.8 34 Sur 54 Sur 0 -- -- 94
2019-08-08 01:00:00 19.3 40 Sur 64 Sur 0.1 -- -- 94
2019-08-08 00:00:00 19.2 42 Sur 69 Sur 0.1 -- -- 95
2019-08-07 23:00:00 19.2 47 Sur 70 Sur 0.4 -- -- 95
2019-08-07 22:00:00 18.5 45 Sur 69 Sur 0.4 -- -- 94
2019-08-07 21:00:00 18 41 Sur 66 Sur 0.5 -- -- 94
2019-08-07 20:00:00 18.3 39 Sur 66 Sur 0.2 -- -- 94
2019-08-07 19:00:00 19.3 33 Sur 51 Sur 0.2 -- -- 95
2019-08-07 18:00:00 19.6 30 Sur 45 Sur 0.2 -- -- 95
2019-08-07 17:00:00 19.5 31 Sur 49 Sur 0.4 -- -- 95
2019-08-07 16:00:00 19 35 Sur 49 Sur 0.1 -- -- 95
2019-08-07 15:00:00 20 37 Sur 59 Sur 0 -- -- 95
2019-08-07 14:00:00 19.3 40 Sur 59 Sur 0.1 -- -- 95
2019-08-07 13:00:00 19.1 44 Sur 60 Sur 0.5 -- -- 95
2019-08-07 12:00:00 19.2 23 Sur 36 Sur 0.6 -- -- 95
2019-08-07 11:00:00 19.3 22 Sur 39 Sur 0.1 -- -- 95
2019-08-07 10:00:00 19.1 24 Sur 35 Sur 0.7 -- -- 95
2019-08-07 09:00:00 19 24 Sur 32 Sur 0.5 -- -- 95
2019-08-07 08:00:00 18.8 20 Sur 27 Sur 0 -- -- 95
2019-08-07 07:00:00 18.6 17 Sur 24 Sur 0 -- -- 95
2019-08-07 06:00:00 18.4 16 Sur 27 Sur 0 -- -- 95
2019-08-07 05:00:00 18 13 Sur 21 Sur 0 -- -- 95
2019-08-07 04:00:00 17.6 9 Sur 20 Sur 0 -- -- 95
2019-08-07 03:00:00 18.3 16 Sur 28 Sur 0 -- -- 95
2019-08-07 02:00:00 18.3 19 Sur 28 Sur 0 -- -- 95
2019-08-07 01:00:00 18.3 14 Sur 17 Sur 0 -- -- 95
2019-08-07 00:00:00 18.6 13 Sur 18 Sur 0 -- -- 95
2019-08-06 23:00:00 18.7 8 Sur 18 Sur 0 -- -- 95
2019-08-06 22:00:00 18.7 15 Sur 20 Sudoeste 0 -- -- 95
2019-08-06 21:00:00 18.9 15 Sudoeste 21 Sur 0 -- -- 95
2019-08-06 20:00:00 19 18 Sur 26 Sudoeste 0 -- -- 95
2019-08-06 19:00:00 19.7 15 Sudoeste 22 Sur 0.2 -- -- 95
2019-08-06 18:00:00 19.7 14 Sur 25 Sudoeste 0.5 -- -- 95
2019-08-06 17:00:00 19.8 10 Sudoeste 23 Sur 0 -- -- 95
2019-08-06 16:00:00 19.7 18 Sur 31 Sudoeste 0.2 -- -- 95
2019-08-06 15:00:00 19.5 21 Sudoeste 28 Sudoeste 0 -- -- 95
2019-08-06 14:00:00 19.6 18 Sur 29 Sur 0 -- -- 95
2019-08-06 13:00:00 19.4 19 Sur 27 Sur 0.1 -- -- 95
2019-08-06 12:00:00 19.3 19 Sur 31 Sur 0 -- -- 95
2019-08-06 11:00:00 19.3 16 Sur 23 Sur 0 -- -- 95
2019-08-06 10:00:00 19.1 17 Sur 26 Sur 0 -- -- 95
2019-08-06 09:00:00 18.7 19 Sur 27 Sur 0 -- -- 95
2019-08-06 08:00:00 18.5 17 Sur 22 Sur 0 -- -- 94
2019-08-06 07:00:00 18.6 16 Sur 24 Sur 0 -- -- 94
2019-08-06 06:00:00 18.5 19 Sur 24 Sur 0 -- -- 94
2019-08-06 05:00:00 18.5 18 Sur 26 Sur 0 -- -- 93
2019-08-06 04:00:00 18.6 16 Sur 21 Sur 0 -- -- 91
2019-08-06 03:00:00 18.7 14 Sur 20 Sur 0 -- -- 91
2019-08-06 02:00:00 18.6 15 Sur 18 Sur 0 -- -- 92
2019-08-06 01:00:00 18.5 14 Sur 17 Sur 0 -- -- 93
2019-08-06 00:00:00 18.2 15 Sudoeste 20 Sudoeste 0 -- -- 94
2019-08-05 23:00:00 18.6 12 Sur 16 Sudoeste 0 -- -- 94
2019-08-05 22:00:00 18.7 13 Sudoeste 20 Sudoeste 0 -- -- 94
2019-08-05 21:00:00 19.7 9 Sudoeste 13 Sudoeste 0 -- -- 92
2019-08-05 20:00:00 20.5 10 Sudoeste 17 Sudoeste 0 -- -- 88
2019-08-05 19:00:00 22.1 14 Sudoeste 23 Sudoeste 0 -- -- 83
2019-08-05 18:00:00 20.9 18 Sudoeste 25 Sudoeste 0 -- -- 89
2019-08-05 17:00:00 20.8 21 Sudoeste 28 Sudoeste 0 -- -- 87
2019-08-05 16:00:00 20.4 21 Sudoeste 32 Sudoeste 0 -- -- 87
2019-08-05 15:00:00 19.9 26 Sudoeste 35 Sudoeste 0 -- -- 79
2019-08-05 14:00:00 22 19 Sudoeste 27 Sur 0 -- -- 77
2019-08-05 13:00:00 21.7 22 Sudoeste 28 Sudoeste 0 -- -- 76
2019-08-05 12:00:00 21.9 13 Sudoeste 19 Sudoeste 0 -- -- 80
2019-08-05 11:00:00 21 13 Sudoeste 24 Sur 0 -- -- 83
2019-08-05 10:00:00 19.5 17 Sur 23 Sur 0 -- -- 87
2019-08-05 09:00:00 18.3 19 Sur 28 Sur 0 -- -- 92
2019-08-05 08:00:00 17.9 18 Sur 23 Sur 0 -- -- 93
2019-08-05 07:00:00 17.6 19 Sur 31 Sur 0 -- -- 93
2019-08-05 06:00:00 17.5 18 Sur 22 Sur 0 -- -- 94
2019-08-05 05:00:00 17.2 15 Sur 18 Sur 0 -- -- 94
2019-08-05 04:00:00 17.2 14 Sur 20 Sur 0 -- -- 93
2019-08-05 03:00:00 17.3 15 Sur 19 Sur 0 -- -- 92
2019-08-05 02:00:00 17.5 13 Sur 17 Sur 0 -- -- 92
2019-08-05 01:00:00 17.7 13 Sur 17 Sur 0 -- -- 91
2019-08-05 00:00:00 18 11 Sur 14 Sur 0 -- -- 91
2019-08-04 23:00:00 17.7 10 Sur 12 Sur 0 -- -- 90
2019-08-04 22:00:00 18.2 9 Sudoeste 12 Sudoeste 0 -- -- 83
2019-08-04 21:00:00 20.4 8 Sudoeste 13 Sudoeste 0 -- -- 74
2019-08-04 20:00:00 21.2 10 Sudoeste 17 Sudoeste 0 -- -- 69
2019-08-04 19:00:00 21.9 11 Sudoeste 19 Sudoeste 0 -- -- 65
2019-08-04 18:00:00 22 12 Sudoeste 18 Oeste 0 -- -- 64
2019-08-04 17:00:00 22.4 13 Oeste 19 Oeste 0 -- -- 64
2019-08-04 16:00:00 22.3 13 Oeste 17 Oeste 0 -- -- 65
2019-08-04 15:00:00 22.4 13 Oeste 19 Oeste 0 -- -- 66
2019-08-04 14:00:00 22 12 Oeste 16 Oeste 0 -- -- 69
2019-08-04 13:00:00 21.4 8 Noroeste 12 Norte 0 -- -- 73
2019-08-04 12:00:00 20.8 7 Norte 11 Norte 0 -- -- 78
2019-08-04 11:00:00 20.3 8 Norte 12 Norte 0 -- -- 83
2019-08-04 10:00:00 19 8 Norte 12 Norte 0 -- -- 90
2019-08-04 09:00:00 18.1 4 Norte 12 Norte 0 -- -- 94
2019-08-04 08:00:00 17.5 6 Norte 13 Noroeste 0 -- -- 94
2019-08-04 07:00:00 17.8 6 Norte 10 Norte 0 -- -- 94
2019-08-04 06:00:00 17.8 8 Norte 11 Nordeste 0 -- -- 94
2019-08-04 05:00:00 17.7 7 Norte 16 Norte 0 -- -- 94
2019-08-04 04:00:00 17.9 13 Norte 19 Norte 0 -- -- 94
2019-08-04 03:00:00 17.9 12 Norte 19 Norte 0 -- -- 94
2019-08-04 02:00:00 18.2 12 Norte 22 Noroeste 0 -- -- 94
2019-08-04 01:00:00 19 5 Norte 12 Norte 0 -- -- 93
2019-08-04 00:00:00 19.1 6 Nordeste 11 Norte 0 -- -- 92
2019-08-03 23:00:00 19.2 5 Nordeste 8 Norte 0 -- -- 91
2019-08-03 22:00:00 19.2 3 Norte 14 Norte 0 -- -- 90
2019-08-03 21:00:00 20 11 Norte 18 Norte 0 -- -- 87
2019-08-03 20:00:00 21.4 10 Norte 14 Noroeste 0 -- -- 84
2019-08-03 19:00:00 21.7 8 Norte 11 Norte 0 -- -- 79
2019-08-03 18:00:00 22.2 6 Norte 11 Norte 0 -- -- 78
2019-08-03 17:00:00 22.2 7 Norte 11 Norte 0 -- -- 79
2019-08-03 16:00:00 22.6 7 Nordeste 9 Nordeste 0 -- -- 69
2019-08-03 15:00:00 22.3 6 Nordeste 9 Nordeste 0 -- -- 81
2019-08-03 14:00:00 22 5 Norte 9 Nordeste 0 -- -- 81
2019-08-03 13:00:00 21.9 5 Nordeste 9 Norte 0 -- -- 84
2019-08-03 12:00:00 20.6 5 Norte 10 Norte 0 -- -- 87
2019-08-03 11:00:00 19.7 5 Norte 8 Norte 0 -- -- 94
2019-08-03 10:00:00 19.5 0 Calma 0 Calma 0 -- -- 95
2019-08-03 09:00:00 18.6 0 Calma 6 Este 0 -- -- 95
2019-08-03 08:00:00 17.5 5 Este 8 Este 0 -- -- 95
2019-08-03 07:00:00 17.4 5 Este 8 Este 0 -- -- 95
2019-08-03 06:00:00 18 0 Calma 0 Calma 0 -- -- 95
2019-08-03 05:00:00 17.9 0 Calma 7 Nordeste 0 -- -- 95
2019-08-03 04:00:00 17.6 6 Nordeste 8 Nordeste 0 -- -- 95
2019-08-03 03:00:00 17.6 4 Nordeste 7 Nordeste 0 -- -- 95
2019-08-03 02:00:00 17.7 5 Nordeste 14 Nordeste 0 -- -- 95
2019-08-03 01:00:00 17.9 11 Nordeste 18 Nordeste 0 -- -- 95
2019-08-03 00:00:00 18.1 10 Nordeste 14 Nordeste 0 -- -- 95
2019-08-02 23:00:00 18 10 Nordeste 16 Nordeste 0 -- -- 95
2019-08-02 22:00:00 18.4 14 Nordeste 18 Nordeste 0 -- -- 94
2019-08-02 21:00:00 19.4 14 Nordeste 18 Nordeste 0 -- -- 90
2019-08-02 20:00:00 19.9 13 Norte 19 Norte 0 -- -- 89
2019-08-02 19:00:00 20.4 17 Nordeste 21 Nordeste 0 -- -- 86
2019-08-02 18:00:00 20.8 16 Nordeste 20 Nordeste 0 -- -- 84
2019-08-02 17:00:00 21 12 Norte 18 Nordeste 0 -- -- 83
2019-08-02 16:00:00 21.2 12 Norte 18 Norte 0 -- -- 82
2019-08-02 15:00:00 21 12 Norte 20 Norte 0 -- -- 81
2019-08-02 14:00:00 20.7 14 Norte 19 Norte 0 -- -- 81
2019-08-02 13:00:00 20.3 15 Norte 21 Norte 0 -- -- 82
2019-08-02 12:00:00 20.1 16 Nordeste 20 Norte 0 -- -- 87
2019-08-02 11:00:00 19.8 15 Nordeste 20 Norte 0 -- -- 90
2019-08-02 10:00:00 18.7 16 Nordeste 23 Nordeste 0 -- -- 95
2019-08-02 09:00:00 17.8 11 Nordeste 20 Nordeste 0 -- -- 96
2019-08-02 08:00:00 17.3 7 Nordeste 14 Nordeste 0 -- -- 96
2019-08-02 07:00:00 17.3 6 Nordeste 9 Nordeste 0 -- -- 96
2019-08-02 06:00:00 17.5 8 Nordeste 19 Nordeste 0 -- -- 96
2019-08-02 05:00:00 17.5 15 Nordeste 27 Nordeste 0 -- -- 96
2019-08-02 04:00:00 17.9 21 Nordeste 32 Nordeste 0 -- -- 96
2019-08-02 03:00:00 18.1 17 Nordeste 35 Nordeste 0 -- -- 96
2019-08-02 02:00:00 18.1 25 Nordeste 42 Nordeste 0 -- -- 96
2019-08-02 01:00:00 18.2 27 Nordeste 40 Nordeste 0 -- -- 96
2019-08-02 00:00:00 17.8 30 Nordeste 45 Nordeste 0 -- -- 96
2019-08-01 23:00:00 17.9 33 Nordeste 45 Nordeste 0 -- -- 95
2019-08-01 22:00:00 17.6 32 Nordeste 38 Nordeste 0 -- -- 95
2019-08-01 21:00:00 18.1 28 Nordeste 35 Nordeste 0 -- -- 90
2019-08-01 20:00:00 18.7 29 Nordeste 38 Nordeste 0 -- -- 87
2019-08-01 19:00:00 19.3 34 Nordeste 37 Nordeste 0 -- -- 86
2019-08-01 18:00:00 19.7 29 Nordeste 38 Nordeste 0 -- -- 85
2019-08-01 17:00:00 19.9 34 Nordeste 40 Nordeste 0 -- -- 84
2019-08-01 16:00:00 19.9 33 Nordeste 42 Nordeste 0 -- -- 84
2019-08-01 15:00:00 20 32 Nordeste 38 Nordeste 0 -- -- 85
2019-08-01 14:00:00 20.1 33 Nordeste 43 Nordeste 0 -- -- 84
2019-08-01 13:00:00 19.8 34 Nordeste 48 Nordeste 0 -- -- 85
2019-08-01 12:00:00 19.2 39 Nordeste 49 Nordeste 0 -- -- 87
2019-08-01 11:00:00 18.7 37 Nordeste 44 Nordeste 0 -- -- 88
2019-08-01 10:00:00 18.3 37 Nordeste 44 Nordeste 0 -- -- 89
2019-08-01 09:00:00 17.5 37 Nordeste 54 Nordeste 0 -- -- 90
2019-08-01 08:00:00 17.4 42 Nordeste 53 Nordeste 0 -- -- 91
2019-08-01 07:00:00 17 38 Nordeste 48 Nordeste 0 -- -- 92
2019-08-01 06:00:00 17 41 Nordeste 49 Nordeste 0 -- -- 92
2019-08-01 05:00:00 17 37 Nordeste 45 Nordeste 0 -- -- 91
2019-08-01 04:00:00 16.8 36 Nordeste 46 Nordeste 0 -- -- 91
2019-08-01 03:00:00 17.3 39 Nordeste 46 Nordeste 0 -- -- 91
2019-08-01 02:00:00 17.2 36 Nordeste 50 Nordeste 0 -- -- 91
2019-08-01 01:00:00 17.1 38 Nordeste 45 Nordeste 0 -- -- 90
2019-08-01 00:00:00 17.2 35 Nordeste 45 Nordeste 0 -- -- 88
2019-07-31 23:00:00 17.2 33 Nordeste 46 Nordeste 0 -- -- 88
2019-07-31 22:00:00 17.5 36 Nordeste 42 Nordeste 0 -- -- 86
2019-07-31 21:00:00 18.1 34 Nordeste 41 Nordeste 0 -- -- 84
2019-07-31 20:00:00 18.3 32 Nordeste 40 Nordeste 0 -- -- 85
2019-07-31 19:00:00 19.1 33 Nordeste 38 Nordeste 0 -- -- 82
2019-07-31 18:00:00 19.8 29 Nordeste 35 Nordeste 0 -- -- 83
2019-07-31 17:00:00 19.6 27 Nordeste 33 Nordeste 0 -- -- 83
2019-07-31 16:00:00 19.8 28 Nordeste 34 Nordeste 0 -- -- 82
2019-07-31 15:00:00 19.8 27 Nordeste 31 Nordeste 0 -- -- 82
2019-07-31 14:00:00 19.5 25 Nordeste 31 Norte 0 -- -- 82
2019-07-31 13:00:00 18.9 26 Nordeste 31 Nordeste 0 -- -- 80
2019-07-31 12:00:00 19.3 25 Nordeste 30 Nordeste 0 -- -- 80
2019-07-31 11:00:00 18.1 23 Nordeste 28 Nordeste 0 -- -- 83
2019-07-31 10:00:00 17.9 16 Nordeste 23 Nordeste 0 -- -- 86
2019-07-31 09:00:00 16.6 13 Nordeste 19 Nordeste 0 -- -- 90
2019-07-31 08:00:00 15.7 14 Nordeste 18 Nordeste 0 -- -- 91
2019-07-31 07:00:00 15 9 Nordeste 15 Nordeste 0 -- -- 90
2019-07-31 06:00:00 14.8 9 Nordeste 15 Nordeste 0 -- -- 89
2019-07-31 05:00:00 14.8 13 Nordeste 15 Este 0 -- -- 88
2019-07-31 04:00:00 14.7 12 Este 15 Este 0 -- -- 88
2019-07-31 03:00:00 14.6 12 Este 14 Este 0 -- -- 87
2019-07-31 02:00:00 15.2 9 Este 11 Este 0 -- -- 85
2019-07-31 01:00:00 15.5 7 Este 9 Nordeste 0 -- -- 84
2019-07-31 00:00:00 15.9 7 Nordeste 14 Nordeste 0 -- -- 84
2019-07-30 23:00:00 16.5 12 Norte 14 Norte 0 -- -- 83
2019-07-30 22:00:00 16.9 10 Norte 13 Norte 0 -- -- 80
2019-07-30 21:00:00 18.2 9 Norte 12 Norte 0 -- -- 74
2019-07-30 20:00:00 19.4 9 Norte 13 Norte 0 -- -- 70
2019-07-30 19:00:00 20.2 10 Norte 13 Norte 0 -- -- 68
2019-07-30 18:00:00 20.7 10 Norte 14 Norte 0 -- -- 65
2019-07-30 17:00:00 20.3 9 Norte 14 Norte 0 -- -- 64
2019-07-30 16:00:00 20.9 10 Norte 17 Noroeste 0 -- -- 63
2019-07-30 15:00:00 21.3 9 Norte 17 Norte 0 -- -- 64
2019-07-30 14:00:00 21 9 Noroeste 17 Noroeste 0 -- -- 64
2019-07-30 13:00:00 20.6 10 Noroeste 17 Noroeste 0 -- -- 67
2019-07-30 12:00:00 -- 12 Noroeste 21 Noroeste 0.2 -- -- 69
2019-07-30 11:00:00 -- 13 Noroeste 21 Noroeste 0 -- -- 72
2019-07-30 10:00:00 -- 13 Noroeste 20 Noroeste 0 -- -- 77
2019-07-30 09:00:00 -- 11 Noroeste 21 Noroeste 0 -- -- 81
2019-07-30 08:00:00 -- 12 Noroeste 25 Noroeste 0 -- -- 81
2019-07-30 07:00:00 -- 15 Noroeste 24 Noroeste 0 -- -- 83
2019-07-30 06:00:00 -- 10 Noroeste 23 Noroeste 0 -- -- 81
2019-07-30 05:00:00 -- 14 Noroeste 27 Noroeste 0 -- -- 81
2019-07-30 04:00:00 -- 19 Noroeste 27 Oeste 0.1 -- -- 81
2019-07-30 03:00:00 -- 20 Noroeste 25 Noroeste 0 -- -- 82
2019-07-30 02:00:00 -- 14 Noroeste 23 Noroeste 0 -- -- 83
2019-07-30 01:00:00 -- 13 Noroeste 24 Noroeste 0 -- -- 84
2019-07-30 00:00:00 -- 21 Noroeste 28 Noroeste 0 -- -- 84
2019-07-29 23:00:00 -- 20 Noroeste 32 Noroeste 0 -- -- 84
2019-07-29 22:00:00 -- 18 Noroeste 31 Oeste 0 -- -- 81
2019-07-29 21:00:00 -- 16 Oeste 27 Noroeste 0.1 -- -- 81
2019-07-29 20:00:00 -- 16 Oeste 32 Oeste 0.3 -- -- 80
2019-07-29 19:00:00 -- 17 Oeste 34 Oeste 0 -- -- 71
2019-07-29 18:00:00 -- 19 Oeste 36 Oeste 0 -- -- 72
2019-07-29 17:00:00 -- 24 Oeste 36 Oeste 0 -- -- 69
2019-07-29 16:00:00 -- 17 Sudoeste 30 Oeste 0 -- -- 74
2019-07-29 15:00:00 -- 22 Oeste 41 Noroeste 0 -- -- 71
2019-07-29 14:00:00 -- 31 Oeste 41 Oeste 0 -- -- 72
2019-07-29 13:00:00 -- 29 Oeste 45 Oeste 0 -- -- 78
2019-07-29 12:00:00 -- 27 Oeste 42 Oeste 0 -- -- 82
2019-07-29 11:00:00 -- 27 Sudoeste 39 Sudoeste 0 -- -- 91
2019-07-29 10:00:00 -- 30 Sudoeste 41 Oeste 0.1 -- -- 97
2019-07-29 09:00:00 -- 27 Sudoeste 43 Sudoeste 0 -- -- 97
2019-07-29 08:00:00 -- 27 Sudoeste 35 Sudoeste 0 -- -- 99
2019-07-29 07:00:00 -- 24 Sudoeste 36 Sudoeste 0.1 -- -- 99
2019-07-29 06:00:00 -- 25 Sudoeste 44 Sudoeste 0 -- -- 99
2019-07-29 05:00:00 -- 28 Sudoeste 49 Sudoeste 0.2 -- -- 99
2019-07-29 04:00:00 -- 27 Sudoeste 41 Oeste 0 -- -- 99
2019-07-29 03:00:00 -- 30 Sudoeste 40 Sudoeste 0 -- -- 99
2019-07-29 02:00:00 -- 24 Sudoeste 59 Sudoeste 1.1 -- -- 99
2019-07-29 01:00:00 -- 36 Sudoeste 54 Sudoeste 0.3 -- -- 99
2019-07-29 00:00:00 -- 33 Sur 47 Sur 0.7 -- -- 99
2019-07-28 23:00:00 -- 30 Sur 55 Sur 0.3 -- -- 98
2019-07-28 22:00:00 -- 30 Sur 39 Sur 0 -- -- 87
2019-07-28 21:00:00 -- 28 Sur 43 Sudoeste 0 -- -- 80
2019-07-28 20:00:00 -- 29 Sur 48 Sudoeste 0 -- -- 77
2019-07-28 19:00:00 -- 33 Sudoeste 42 Sudoeste 0 -- -- 75
2019-07-28 18:00:00 -- 29 Sudoeste 37 Sudoeste 0 -- -- 73
2019-07-28 17:00:00 -- 23 Sudoeste 32 Sudoeste 0 -- -- 72
2019-07-28 16:00:00 -- 19 Sudoeste 23 Sudoeste 0 -- -- 72
2019-07-28 15:00:00 -- 9 Oeste 14 Oeste 0 -- -- 70
2019-07-28 14:00:00 -- 6 Nordeste 12 Norte 0 -- -- 79
2019-07-28 13:00:00 -- 6 Norte 12 Norte 0 -- -- 87
2019-07-28 12:00:00 -- 6 Norte 15 Norte 0 -- -- 87
2019-07-28 11:00:00 -- 6 Nordeste 9 Nordeste 0 -- -- 88
2019-07-28 10:00:00 -- 0 Calma 5 Nordeste 0 -- -- 92
2019-07-28 09:00:00 -- 4 Nordeste 17 Nordeste 0 -- -- 96
2019-07-28 08:00:00 -- 12 Nordeste 17 Este 0 -- -- 99
2019-07-28 07:00:00 -- 11 Este 15 Nordeste 0 -- -- 99
2019-07-28 06:00:00 -- 9 Nordeste 17 Nordeste 0 -- -- 99
2019-07-28 05:00:00 -7.8 11 Nordeste 15 Nordeste 0 -- -- 99
2019-07-28 04:00:00 -8.6 12 Nordeste 18 Nordeste 0 -- -- 99
2019-07-28 03:00:00 -8.6 12 Nordeste 17 Nordeste 0 -- -- 97
2019-07-28 02:00:00 -8.1 14 Nordeste 25 Nordeste 0 -- -- 97
2019-07-28 01:00:00 -8.7 17 Nordeste 23 Nordeste 0 -- -- 97
2019-07-28 00:00:00 -8.7 18 Nordeste 26 Nordeste 0 -- -- 95
2019-07-27 23:00:00 -- 18 Nordeste 31 Nordeste 0 -- -- 92
2019-07-26 12:00:00 19.8 9 Sudoeste 15 Sur 0 -- -- 78
2019-07-26 11:00:00 18.6 8 Sudoeste 10 Sudoeste 0 -- -- 91
2019-07-26 10:00:00 17.7 4 Sur 6 Sur 0 -- -- 99
2019-07-26 09:00:00 17.5 5 Sudoeste 9 Sudoeste 0 -- -- 99
2019-07-26 08:00:00 16.3 5 Sudoeste 10 Sudoeste 0 -- -- 99
2019-07-26 07:00:00 16.7 6 Sudoeste 9 Sudoeste 0 -- -- 99
2019-07-26 06:00:00 16.7 6 Sur 8 Sur 0 -- -- 99
2019-07-26 05:00:00 16.8 5 Sur 7 Sudoeste 0 -- -- 99
2019-07-26 04:00:00 16.7 6 Sudoeste 10 Sudoeste 0 -- -- 99
2019-07-26 03:00:00 16.9 6 Sudoeste 11 Sudoeste 0 -- -- 99
2019-07-26 02:00:00 17.1 8 Sudoeste 12 Sudoeste 0 -- -- 99
2019-07-26 01:00:00 16.8 11 Sudoeste 15 Sudoeste 0 -- -- 99
2019-07-26 00:00:00 16.6 12 Sudoeste 19 Sudoeste 0 -- -- 99
2019-07-25 23:00:00 17 17 Sudoeste 21 Sudoeste 0 -- -- 99
2019-07-25 22:00:00 17.7 17 Sudoeste 26 Sudoeste 0 -- -- 97
2019-07-25 21:00:00 18.9 22 Sudoeste 29 Sudoeste 0 -- -- 90
2019-07-25 20:00:00 20 22 Sudoeste 33 Sudoeste 0 -- -- 84
2019-07-25 19:00:00 20.8 26 Sudoeste 37 Sur 0 -- -- 82
2019-07-25 18:00:00 21.4 28 Sudoeste 35 Sudoeste 0 -- -- 81
2019-07-25 17:00:00 20.8 26 Sudoeste 39 Sudoeste 0 -- -- 84
2019-07-25 16:00:00 22.1 28 Sudoeste 39 Sudoeste 0 -- -- 87
2019-07-25 15:00:00 21.5 31 Sudoeste 40 Sudoeste 0 -- -- 91
2019-07-25 14:00:00 20.8 32 Sudoeste 40 Sudoeste 0 -- -- 97
2019-07-25 13:00:00 20 30 Sudoeste 37 Sudoeste 0 -- -- 99
2019-07-25 12:00:00 18.1 26 Sur 35 Sudoeste 0.1 -- -- 99
2019-07-25 11:00:00 18.6 25 Sudoeste 33 Sudoeste 0.2 -- -- 99
2019-07-25 10:00:00 17.8 25 Sur 37 Sur 1.2 -- -- 99
2019-07-25 09:00:00 17.8 27 Sur 46 Sur 0.3 -- -- 99
2019-07-25 08:00:00 17.9 31 Sur 42 Sur 0.3 -- -- 99
2019-07-25 07:00:00 18.2 33 Sur 54 Sur 0.7 -- -- 99
2019-07-25 06:00:00 18.5 35 Sur 55 Sur 0 -- -- 99
2019-07-25 05:00:00 18.5 40 Sur 53 Sur 0 -- -- 99
2019-07-25 04:00:00 18.8 33 Sur 46 Sur 0 -- -- 99
2019-07-25 03:00:00 19 31 Sur 44 Sur 0 -- -- 99
2019-07-25 02:00:00 19 31 Sur 48 Sur 0 -- -- 99
2019-07-25 01:00:00 18.9 26 Sur 50 Sur 0 -- -- 99
2019-07-25 00:00:00 18.9 30 Sur 48 Sur 0 -- -- 99
2019-07-24 23:00:00 18.7 33 Sur 43 Sur 0 -- -- 99
2019-07-24 22:00:00 18.9 29 Sur 44 Sur 0 -- -- 97
2019-07-24 21:00:00 19.7 32 Sur 48 Sur 0 -- -- 92
2019-07-24 20:00:00 20.5 28 Sur 46 Sur 0 -- -- 88
2019-07-24 19:00:00 21.7 30 Sur 47 Sur 0 -- -- 82
2019-07-24 18:00:00 21.8 31 Sur 45 Sur 0 -- -- 79
2019-07-24 17:00:00 21.4 32 Sur 47 Sur 0 -- -- 82
2019-07-24 16:00:00 22.6 28 Sur 41 Sur 0 -- -- 80
2019-07-24 15:00:00 22.4 27 Sur 37 Sur 0 -- -- 82
2019-07-24 14:00:00 21.9 25 Sur 36 Sur 0 -- -- 86
2019-07-24 13:00:00 21 17 Sur 27 Sur 0 -- -- 89
2019-07-24 12:00:00 20.3 15 Sur 23 Sur 0 -- -- 94
2019-07-24 11:00:00 20.4 16 Sur 23 Sur 0 -- -- 95
2019-07-24 10:00:00 19.9 18 Sur 30 Sur 0 -- -- 98
2019-07-24 09:00:00 19.1 20 Sur 27 Sur 0 -- -- 99
2019-07-24 08:00:00 18.7 18 Sur 22 Sur 0 -- -- 99
2019-07-24 07:00:00 18.9 16 Sur 21 Sur 0 -- -- 99
2019-07-24 06:00:00 18.6 15 Sur 26 Sur 0 -- -- 99
2019-07-24 05:00:00 18.5 14 Sur 19 Sur 0 -- -- 99
2019-07-24 04:00:00 18.2 13 Sur 21 Sur 0 -- -- 98
2019-07-24 03:00:00 18.5 14 Sur 20 Sudeste 0 -- -- 97
2019-07-24 02:00:00 17.8 15 Sudeste 19 Sur 0 -- -- 97
2019-07-24 01:00:00 18.3 14 Sur 20 Sur 0 -- -- 96
2019-07-24 00:00:00 17.9 13 Sur 19 Sudeste 0 -- -- 97
2019-07-23 23:00:00 17.8 14 Sur 24 Sur 0 -- -- 97
2019-07-23 22:00:00 17.3 17 Sudoeste 26 Sudoeste 0 -- -- 95
2019-07-23 21:00:00 18.9 18 Sudoeste 29 Sudoeste 0 -- -- 86
2019-07-23 20:00:00 19.8 22 Sudoeste 30 Sudoeste 0 -- -- 79
2019-07-23 19:00:00 21 24 Sudoeste 31 Sudoeste 0 -- -- 76
2019-07-23 18:00:00 20.9 23 Sudoeste 32 Sudoeste 0 -- -- 84
2019-07-23 17:00:00 21.1 19 Sudoeste 26 Sudoeste 0 -- -- 87
2019-07-23 16:00:00 20.5 18 Sudoeste 29 Sudoeste 0 -- -- 93
2019-07-23 15:00:00 18.7 26 Sudoeste 34 Sudoeste 0 -- -- 99
2019-07-23 14:00:00 18.8 12 Sudoeste 15 Sudoeste 0 -- -- 99
2019-07-23 13:00:00 17.5 10 Sudoeste 14 Sudoeste 0 -- -- 99
2019-07-23 12:00:00 18.3 6 Sudoeste 11 Sudoeste 0 -- -- 99
2019-07-23 11:00:00 19 0 Calma -- -- 0 -- -- 99
2019-07-23 10:00:00 18.4 0 Calma -- -- 0.1 -- -- 99
2019-07-23 09:00:00 18.1 0 Calma -- -- 0.1 -- -- 99
2019-07-23 08:00:00 18.4 0 Calma -- -- 0.1 -- -- 99
2019-07-23 07:00:00 18.3 0 Calma -- -- 0.1 -- -- 99
2019-07-23 06:00:00 18 0 Calma 14 Nordeste 0 -- -- 99
2019-07-23 05:00:00 18.1 13 Nordeste 18 Nordeste 0 -- -- 99
2019-07-23 04:00:00 17.4 12 Nordeste 17 Nordeste 0 -- -- 99
2019-07-23 03:00:00 17.5 6 Norte 23 Nordeste 0 -- -- 99
2019-07-23 02:00:00 18.9 18 Nordeste 36 Nordeste 0 -- -- 99
2019-07-23 01:00:00 18.5 27 Nordeste 41 Nordeste 0 -- -- 99
2019-07-23 00:00:00 17.9 27 Nordeste 36 Nordeste 0 -- -- 99
2019-07-22 23:00:00 17.8 27 Nordeste 33 Nordeste 0 -- -- 99
2019-07-22 22:00:00 17.9 24 Nordeste 31 Nordeste 0 -- -- 99
2019-07-22 21:00:00 17.3 23 Nordeste 30 Nordeste 0 -- -- 99
2019-07-22 20:00:00 18 25 Nordeste 35 Nordeste 0 -- -- 99
2019-07-22 19:00:00 18.8 24 Nordeste 37 Nordeste 0 -- -- 98
2019-07-22 18:00:00 -- 26 Nordeste 32 Nordeste 0 -- -- 96
2019-07-22 17:00:00 -- 31 Nordeste 38 Nordeste 0 -- -- 96
2019-07-22 16:00:00 -- 22 Nordeste 33 Nordeste 0 -- -- --
2019-07-22 15:00:00 -- 26 Nordeste 37 Nordeste 0 -- -- 97
2019-07-22 14:00:00 -- 31 Nordeste 46 Nordeste 0 -- -- 98
2019-07-22 13:00:00 -- 35 Nordeste 43 Nordeste 0 -- -- 99
2019-07-22 12:00:00 -- 32 Nordeste 41 Nordeste 0 -- -- 99
2019-07-22 11:00:00 -- 41 Nordeste 50 Nordeste 0 -- -- 99
2019-07-22 10:00:00 -- 29 Nordeste 44 Nordeste 0 -- -- 99
2019-07-22 09:00:00 -- 32 Nordeste 45 Nordeste 0 -- -- 99
2019-07-22 08:00:00 18 35 Nordeste 53 Nordeste 0 -- -- 99
2019-07-22 07:00:00 18.2 35 Nordeste 48 Nordeste 0 -- -- 99
2019-07-22 06:00:00 18 36 Nordeste 47 Nordeste 0 -- -- 99
2019-07-22 05:00:00 18.3 33 Nordeste 47 Nordeste 0 -- -- 99
2019-07-22 04:00:00 18.3 37 Nordeste 50 Nordeste 0 -- -- 99
2019-07-22 03:00:00 18.1 36 Nordeste 49 Nordeste 0 -- -- 99
2019-07-22 02:00:00 18.3 31 Nordeste 44 Nordeste 0 -- -- 99
2019-07-22 01:00:00 18.4 26 Nordeste 43 Nordeste 0 -- -- 99
2019-07-22 00:00:00 18.4 30 Nordeste 43 Nordeste 0 -- -- 99
2019-07-21 23:00:00 18.4 32 Nordeste 48 Nordeste 0 -- -- 99
2019-07-21 22:00:00 18.4 39 Nordeste 48 Nordeste 0 -- -- 99
2019-07-21 21:00:00 18.1 32 Nordeste 37 Nordeste 0 -- -- 98
2019-07-21 20:00:00 18.7 29 Nordeste 33 Nordeste 0 -- -- 94
2019-07-21 19:00:00 18.9 28 Nordeste 31 Nordeste 0 -- -- 91
2019-07-21 18:00:00 19.2 24 Nordeste 28 Nordeste 0 -- -- 90
2019-07-21 17:00:00 19.8 24 Nordeste 29 Nordeste 0 -- -- 90
2019-07-21 16:00:00 20 25 Nordeste 33 Nordeste 0 -- -- 89
2019-07-21 15:00:00 20.6 25 Nordeste 30 Nordeste 0 -- -- 92
2019-07-21 14:00:00 19.4 22 Nordeste 26 Nordeste 0 -- -- 97
2019-07-21 13:00:00 18.6 15 Nordeste 24 Nordeste 0 -- -- 99
2019-07-21 12:00:00 17.8 15 Nordeste 24 Nordeste 0 -- -- 99
2019-07-21 11:00:00 17.7 20 Nordeste 26 Nordeste 0 -- -- 99
2019-07-21 10:00:00 17 16 Nordeste 19 Nordeste 0 -- -- 99
2019-07-21 09:00:00 16.1 12 Nordeste 15 Norte 0 -- -- 99
2019-07-21 08:00:00 16.5 8 Nordeste 12 Nordeste 0 -- -- 99
2019-07-21 07:00:00 16.3 8 Nordeste 12 Nordeste 0 -- -- 99
2019-07-21 06:00:00 15.9 7 Nordeste 13 Este 0 -- -- 99
2019-07-21 05:00:00 16 4 Nordeste 8 Este 0 -- -- 99
2019-07-21 04:00:00 16 5 Nordeste 10 Nordeste 0 -- -- 99
2019-07-21 03:00:00 16.5 10 Nordeste 14 Nordeste 0 -- -- 99
2019-07-21 02:00:00 16.7 10 Nordeste 17 Nordeste 0 -- -- 99
2019-07-21 01:00:00 17 9 Nordeste 19 Nordeste 0 -- -- 99
2019-07-21 00:00:00 17.4 13 Este 17 Nordeste 0 -- -- 99